createdAt,value
2016-09-17T00:00:47.412Z,733.67
2016-09-17T00:01:47.398Z,733.81
2016-09-17T00:02:47.376Z,733.71
2016-09-17T00:03:47.368Z,733.66
2016-09-17T00:04:47.347Z,733.63
2016-09-17T00:05:47.339Z,733.73
2016-09-17T00:06:47.325Z,733.69
2016-09-17T00:07:47.302Z,733.67
2016-09-17T00:08:47.288Z,733.62
2016-09-17T00:09:47.273Z,733.72
2016-09-17T00:10:47.264Z,733.6
2016-09-17T00:11:47.250Z,733.71
2016-09-17T00:12:47.235Z,733.66
2016-09-17T00:13:47.220Z,733.71
2016-09-17T00:14:47.205Z,733.74
2016-09-17T00:15:47.191Z,733.7
2016-09-17T00:16:47.177Z,733.73
2016-09-17T00:17:47.155Z,733.69
2016-09-17T00:18:47.146Z,733.62
2016-09-17T00:19:47.126Z,733.62
2016-09-17T00:20:47.118Z,733.64
2016-09-17T00:21:47.096Z,733.66
2016-09-17T00:22:47.081Z,733.61
2016-09-17T00:23:47.067Z,733.65
2016-09-17T00:24:47.058Z,733.74
2016-09-17T00:25:47.043Z,733.69
2016-09-17T00:26:47.025Z,733.67
2016-09-17T00:27:47.014Z,733.85
2016-09-17T00:28:46.998Z,733.68
2016-09-17T00:29:46.984Z,733.76
2016-09-17T00:30:46.969Z,733.78
2016-09-17T00:31:46.953Z,733.82
2016-09-17T00:32:46.930Z,733.88
2016-09-17T00:33:46.923Z,733.81
2016-09-17T00:34:46.908Z,733.78
2016-09-17T00:35:46.885Z,733.72
2016-09-17T00:36:46.872Z,733.74
2016-09-17T00:37:46.863Z,733.74
2016-09-17T00:38:46.842Z,733.66
2016-09-17T00:39:46.824Z,733.71
2016-09-17T00:40:46.811Z,733.66
2016-09-17T00:41:46.796Z,733.77
2016-09-17T00:42:46.781Z,733.78
2016-09-17T00:43:46.772Z,733.73
2016-09-17T00:44:46.758Z,733.82
2016-09-17T00:45:46.755Z,733.71
2016-09-17T00:46:46.721Z,733.71
2016-09-17T00:47:46.706Z,733.73
2016-09-17T00:48:46.692Z,733.77
2016-09-17T00:49:46.685Z,733.83
2016-09-17T00:50:46.669Z,733.78
2016-09-17T00:51:46.654Z,733.78
2016-09-17T00:52:46.640Z,733.84
2016-09-17T00:53:46.623Z,733.81
2016-09-17T00:54:46.602Z,733.88
2016-09-17T00:55:46.595Z,733.87
2016-09-17T00:56:46.575Z,733.83
2016-09-17T00:57:46.558Z,733.85
2016-09-17T00:58:46.551Z,733.88
2016-09-17T00:59:46.537Z,733.93
2016-09-17T01:00:46.516Z,733.89
2016-09-17T01:01:46.508Z,733.9
2016-09-17T01:02:46.492Z,733.88
2016-09-17T01:03:46.479Z,733.9
2016-09-17T01:04:46.463Z,733.87
2016-09-17T01:05:46.450Z,733.85
2016-09-17T01:06:46.436Z,733.87
2016-09-17T01:07:46.421Z,734
2016-09-17T01:08:46.406Z,734
2016-09-17T01:09:46.391Z,733.99
2016-09-17T01:10:46.373Z,734.04
2016-09-17T01:11:46.357Z,734.05
2016-09-17T01:12:46.341Z,734.08
2016-09-17T01:13:46.334Z,734.08
2016-09-17T01:14:46.312Z,734.15
2016-09-17T01:15:46.297Z,734.18
2016-09-17T01:16:46.283Z,734.07
2016-09-17T01:17:46.270Z,734.04
2016-09-17T01:18:46.261Z,734.08
2016-09-17T01:19:46.247Z,734.02
2016-09-17T01:20:46.227Z,733.99
2016-09-17T01:21:46.222Z,734.02
2016-09-17T01:22:46.204Z,734
2016-09-17T01:23:46.189Z,733.97
2016-09-17T01:24:46.168Z,734.01
2016-09-17T01:25:46.165Z,734
2016-09-17T01:26:46.140Z,733.97
2016-09-17T01:27:46.125Z,733.98
2016-09-17T01:28:46.110Z,733.96
2016-09-17T01:29:46.104Z,733.82
2016-09-17T01:30:46.088Z,733.9
2016-09-17T01:31:46.067Z,733.92
2016-09-17T01:32:46.053Z,733.91
2016-09-17T01:33:46.045Z,733.95
2016-09-17T01:34:46.031Z,733.95
2016-09-17T01:35:46.008Z,733.94
2016-09-17T01:36:46.002Z,733.88
2016-09-17T01:37:45.986Z,733.91
2016-09-17T01:38:45.966Z,733.89
2016-09-17T01:39:45.959Z,733.88
2016-09-17T01:40:45.937Z,733.87
2016-09-17T01:41:45.930Z,733.83
2016-09-17T01:42:45.915Z,733.89
2016-09-17T01:43:45.902Z,733.87
2016-09-17T01:44:45.887Z,733.88
2016-09-17T01:45:45.873Z,733.9
2016-09-17T01:46:45.859Z,733.83
2016-09-17T01:47:45.838Z,733.89
2016-09-17T01:48:45.823Z,733.82
2016-09-17T01:49:45.816Z,733.89
2016-09-17T01:50:45.803Z,733.85
2016-09-17T01:51:45.782Z,733.86
2016-09-17T01:52:45.775Z,733.86
2016-09-17T01:53:45.753Z,733.8
2016-09-17T01:54:45.741Z,733.83
2016-09-17T01:55:45.732Z,733.83
2016-09-17T01:56:45.713Z,733.83
2016-09-17T01:57:45.706Z,733.8
2016-09-17T01:58:45.691Z,733.77
2016-09-17T01:59:45.677Z,733.79
2016-09-17T02:00:45.655Z,733.77
2016-09-17T02:01:45.649Z,733.74
2016-09-17T02:02:45.636Z,733.79
2016-09-17T02:03:45.614Z,733.76
2016-09-17T02:04:45.600Z,733.76
2016-09-17T02:05:45.587Z,733.83
2016-09-17T02:06:45.579Z,733.76
2016-09-17T02:07:45.565Z,733.77
2016-09-17T02:08:45.551Z,733.75
2016-09-17T02:09:45.538Z,733.73
2016-09-17T02:10:45.516Z,733.75
2016-09-17T02:11:45.504Z,733.76
2016-09-17T02:12:45.489Z,733.76
2016-09-17T02:13:45.482Z,733.73
2016-09-17T02:14:45.462Z,733.72
2016-09-17T02:15:45.454Z,733.67
2016-09-17T02:16:45.432Z,733.71
2016-09-17T02:17:45.417Z,733.69
2016-09-17T02:18:45.412Z,733.76
2016-09-17T02:19:45.397Z,733.7
2016-09-17T02:20:45.378Z,733.68
2016-09-17T02:21:45.369Z,733.7
2016-09-17T02:22:45.349Z,733.74
2016-09-17T02:23:45.335Z,733.76
2016-09-17T02:24:45.321Z,733.68
2016-09-17T02:25:45.313Z,733.69
2016-09-17T02:26:45.299Z,733.68
2016-09-17T02:27:45.279Z,733.66
2016-09-17T02:28:45.263Z,733.66
2016-09-17T02:29:45.249Z,733.62
2016-09-17T02:30:45.243Z,733.64
2016-09-17T02:31:45.222Z,733.61
2016-09-17T02:32:45.208Z,733.61
2016-09-17T02:33:45.193Z,733.65
2016-09-17T02:34:45.187Z,733.65
2016-09-17T02:35:45.166Z,733.65
2016-09-17T02:36:45.157Z,733.56
2016-09-17T02:37:45.136Z,733.61
2016-09-17T02:38:45.130Z,733.61
2016-09-17T02:39:45.109Z,733.55
2016-09-17T02:40:45.101Z,733.58
2016-09-17T02:41:45.081Z,733.53
2016-09-17T02:42:45.074Z,733.57
2016-09-17T02:43:45.059Z,733.6
2016-09-17T02:44:45.046Z,733.6
2016-09-17T02:45:45.031Z,733.59
2016-09-17T02:46:45.012Z,733.6
2016-09-17T02:47:45.003Z,733.64
2016-09-17T02:48:44.995Z,733.61
2016-09-17T02:49:44.969Z,733.63
2016-09-17T02:50:44.952Z,733.59
2016-09-17T02:51:44.940Z,733.6
2016-09-17T02:52:44.926Z,733.53
2016-09-17T02:53:44.919Z,733.6
2016-09-17T02:54:44.903Z,733.57
2016-09-17T02:55:44.890Z,733.57
2016-09-17T02:56:44.868Z,733.56
2016-09-17T02:57:44.856Z,733.55
2016-09-17T02:58:44.841Z,733.53
2016-09-17T02:59:44.826Z,733.55
2016-09-17T03:00:44.819Z,733.55
2016-09-17T03:01:44.798Z,733.59
2016-09-17T03:02:44.784Z,733.54
2016-09-17T03:03:44.776Z,733.57
2016-09-17T03:04:44.754Z,733.54
2016-09-17T03:05:44.762Z,733.59
2016-09-17T03:06:44.727Z,733.58
2016-09-17T03:07:44.713Z,733.59
2016-09-17T03:08:44.705Z,733.51
2016-09-17T03:09:44.689Z,733.57
2016-09-17T03:10:44.668Z,733.56
2016-09-17T03:11:44.661Z,733.54
2016-09-17T03:12:44.639Z,733.42
2016-09-17T03:13:44.625Z,733.44
2016-09-17T03:14:44.618Z,733.53
2016-09-17T03:15:44.604Z,733.56
2016-09-17T03:16:44.581Z,733.55
2016-09-17T03:17:44.567Z,733.51
2016-09-17T03:18:44.552Z,733.54
2016-09-17T03:19:44.539Z,733.51
2016-09-17T03:20:44.524Z,733.53
2016-09-17T03:21:44.516Z,733.54
2016-09-17T03:22:44.502Z,733.5
2016-09-17T03:23:44.486Z,733.51
2016-09-17T03:24:44.472Z,733.52
2016-09-17T03:25:44.451Z,733.49
2016-09-17T03:26:44.438Z,733.48
2016-09-17T03:27:44.422Z,733.49
2016-09-17T03:28:44.414Z,733.49
2016-09-17T03:29:44.401Z,733.47
2016-09-17T03:30:44.387Z,733.52
2016-09-17T03:31:44.369Z,733.49
2016-09-17T03:32:44.359Z,733.51
2016-09-17T03:33:44.345Z,733.54
2016-09-17T03:34:44.322Z,733.53
2016-09-17T03:35:44.316Z,733.47
2016-09-17T03:36:44.295Z,733.49
2016-09-17T03:37:44.287Z,733.5
2016-09-17T03:38:44.266Z,733.46
2016-09-17T03:39:44.258Z,733.46
2016-09-17T03:40:44.244Z,733.44
2016-09-17T03:41:44.229Z,733.45
2016-09-17T03:42:44.214Z,733.44
2016-09-17T03:43:44.201Z,733.5
2016-09-17T03:44:44.186Z,733.48
2016-09-17T03:45:44.172Z,733.51
2016-09-17T03:46:44.151Z,733.44
2016-09-17T03:47:44.144Z,733.45
2016-09-17T03:48:44.127Z,733.46
2016-09-17T03:49:44.108Z,733.46
2016-09-17T03:50:44.101Z,733.46
2016-09-17T03:51:44.086Z,733.47
2016-09-17T03:52:44.073Z,733.42
2016-09-17T03:53:44.052Z,733.39
2016-09-17T03:54:44.038Z,733.41
2016-09-17T03:55:44.024Z,733.38
2016-09-17T03:56:44.010Z,733.35
2016-09-17T03:57:43.995Z,733.37
2016-09-17T03:58:43.981Z,733.34
2016-09-17T03:59:43.976Z,733.23
2016-09-17T04:00:43.961Z,733.33
2016-09-17T04:01:43.947Z,733.36
2016-09-17T04:02:43.934Z,733.37
2016-09-17T04:03:43.919Z,733.39
2016-09-17T04:04:43.906Z,733.37
2016-09-17T04:05:43.885Z,733.39
2016-09-17T04:06:43.872Z,733.34
2016-09-17T04:07:43.855Z,733.39
2016-09-17T04:08:43.850Z,733.4
2016-09-17T04:09:43.829Z,733.37
2016-09-17T04:10:43.824Z,733.4
2016-09-17T04:11:43.799Z,733.38
2016-09-17T04:12:43.786Z,733.4
2016-09-17T04:13:43.774Z,733.39
2016-09-17T04:14:43.765Z,733.39
2016-09-17T04:15:43.752Z,733.39
2016-09-17T04:16:43.732Z,733.37
2016-09-17T04:17:43.724Z,733.37
2016-09-17T04:18:43.701Z,733.4
2016-09-17T04:19:43.689Z,733.48
2016-09-17T04:20:43.680Z,733.45
2016-09-17T04:21:43.660Z,733.43
2016-09-17T04:22:43.651Z,733.36
2016-09-17T04:23:43.637Z,733.41
2016-09-17T04:24:43.615Z,733.41
2016-09-17T04:25:43.607Z,733.5
2016-09-17T04:26:43.594Z,733.52
2016-09-17T04:27:43.578Z,733.49
2016-09-17T04:28:43.563Z,733.4
2016-09-17T04:29:43.548Z,733.5
2016-09-17T04:30:43.533Z,733.51
2016-09-17T04:31:43.511Z,733.53
2016-09-17T04:32:43.504Z,733.49
2016-09-17T04:33:43.488Z,733.54
2016-09-17T04:34:43.468Z,733.52
2016-09-17T04:35:43.453Z,733.48
2016-09-17T04:36:43.436Z,733.48
2016-09-17T04:37:43.429Z,733.49
2016-09-17T04:38:43.409Z,733.46
2016-09-17T04:39:43.401Z,733.48
2016-09-17T04:40:43.385Z,733.5
2016-09-17T04:41:43.370Z,733.47
2016-09-17T04:42:43.356Z,733.48
2016-09-17T04:43:43.334Z,733.49
2016-09-17T04:44:43.320Z,733.42
2016-09-17T04:45:43.312Z,733.44
2016-09-17T04:46:43.290Z,733.51
2016-09-17T04:47:43.275Z,733.54
2016-09-17T04:48:43.259Z,733.55
2016-09-17T04:49:43.253Z,733.54
2016-09-17T04:50:43.237Z,733.56
2016-09-17T04:51:43.222Z,733.56
2016-09-17T04:52:43.257Z,733.56
2016-09-17T04:53:43.186Z,733.54
2016-09-17T04:54:43.179Z,733.61
2016-09-17T04:55:43.167Z,733.63
2016-09-17T04:56:43.142Z,733.58
2016-09-17T04:57:43.135Z,733.61
2016-09-17T04:58:43.121Z,733.65
2016-09-17T04:59:43.106Z,733.65
2016-09-17T05:00:43.084Z,733.64
2016-09-17T05:01:43.077Z,733.71
2016-09-17T05:02:43.062Z,733.7
2016-09-17T05:03:43.040Z,733.69
2016-09-17T05:04:43.033Z,733.7
2016-09-17T05:05:43.013Z,733.71
2016-09-17T05:06:43.000Z,733.69
2016-09-17T05:07:42.992Z,733.72
2016-09-17T05:08:42.970Z,733.72
2016-09-17T05:09:42.956Z,733.71
2016-09-17T05:10:42.941Z,733.72
2016-09-17T05:11:42.928Z,733.68
2016-09-17T05:12:42.920Z,733.72
2016-09-17T05:13:42.898Z,733.74
2016-09-17T05:14:42.885Z,733.75
2016-09-17T05:15:42.877Z,733.71
2016-09-17T05:16:42.855Z,733.7
2016-09-17T05:17:42.849Z,733.71
2016-09-17T05:18:42.834Z,733.76
2016-09-17T05:19:42.820Z,733.73
2016-09-17T05:20:42.799Z,733.7
2016-09-17T05:21:42.785Z,733.78
2016-09-17T05:22:42.772Z,733.74
2016-09-17T05:23:42.759Z,733.73
2016-09-17T05:24:42.744Z,733.75
2016-09-17T05:25:42.729Z,733.74
2016-09-17T05:26:42.716Z,733.74
2016-09-17T05:27:42.700Z,733.76
2016-09-17T05:28:42.695Z,733.74
2016-09-17T05:29:42.680Z,733.81
2016-09-17T05:30:42.660Z,733.82
2016-09-17T05:31:42.659Z,733.84
2016-09-17T05:32:42.631Z,733.83
2016-09-17T05:33:42.624Z,733.78
2016-09-17T05:34:42.605Z,733.84
2016-09-17T05:35:42.589Z,733.79
2016-09-17T05:36:42.583Z,733.8
2016-09-17T05:37:42.562Z,733.83
2016-09-17T05:38:42.563Z,733.85
2016-09-17T05:39:42.540Z,733.9
2016-09-17T05:40:42.527Z,733.89
2016-09-17T05:41:42.513Z,733.8
2016-09-17T05:42:42.490Z,733.82
2016-09-17T05:43:42.477Z,733.84
2016-09-17T05:44:42.464Z,733.87
2016-09-17T05:45:42.458Z,733.85
2016-09-17T05:46:42.437Z,733.86
2016-09-17T05:47:42.428Z,733.86
2016-09-17T05:48:42.410Z,733.91
2016-09-17T05:49:42.401Z,733.93
2016-09-17T05:50:42.388Z,733.91
2016-09-17T05:51:42.375Z,733.93
2016-09-17T05:52:42.361Z,733.89
2016-09-17T05:53:42.340Z,733.89
2016-09-17T05:54:42.332Z,733.92
2016-09-17T05:55:42.319Z,733.89
2016-09-17T05:56:42.305Z,733.9
2016-09-17T05:57:42.291Z,733.89
2016-09-17T05:58:42.268Z,733.88
2016-09-17T05:59:42.264Z,733.88
2016-09-17T06:00:42.240Z,733.89
2016-09-17T06:01:42.235Z,733.87
2016-09-17T06:02:42.215Z,733.93
2016-09-17T06:03:42.200Z,733.85
2016-09-17T06:04:42.186Z,733.9
2016-09-17T06:05:42.171Z,733.89
2016-09-17T06:06:42.158Z,733.86
2016-09-17T06:07:42.143Z,733.87
2016-09-17T06:08:42.137Z,733.88
2016-09-17T06:09:42.123Z,733.92
2016-09-17T06:10:42.103Z,733.9
2016-09-17T06:11:42.086Z,733.91
2016-09-17T06:12:42.074Z,733.9
2016-09-17T06:13:42.066Z,733.92
2016-09-17T06:14:42.045Z,733.9
2016-09-17T06:15:42.032Z,733.91
2016-09-17T06:16:42.024Z,733.9
2016-09-17T06:17:42.003Z,733.93
2016-09-17T06:18:41.989Z,733.85
2016-09-17T06:19:41.975Z,733.92
2016-09-17T06:20:41.968Z,733.9
2016-09-17T06:21:41.954Z,733.86
2016-09-17T06:22:41.932Z,733.87
2016-09-17T06:23:41.925Z,733.82
2016-09-17T06:24:41.903Z,733.78
2016-09-17T06:25:41.891Z,733.84
2016-09-17T06:26:41.880Z,733.86
2016-09-17T06:27:41.868Z,733.85
2016-09-17T06:28:41.853Z,733.82
2016-09-17T06:29:41.837Z,733.86
2016-09-17T06:30:41.817Z,733.86
2016-09-17T06:31:41.809Z,733.87
2016-09-17T06:32:41.795Z,733.9
2016-09-17T06:33:41.774Z,733.87
2016-09-17T06:34:41.760Z,733.86
2016-09-17T06:35:41.752Z,733.87
2016-09-17T06:36:41.731Z,733.91
2016-09-17T06:37:41.717Z,733.87
2016-09-17T06:38:41.710Z,733.91
2016-09-17T06:39:41.689Z,733.86
2016-09-17T06:40:41.682Z,733.89
2016-09-17T06:41:41.663Z,733.87
2016-09-17T06:42:41.647Z,733.87
2016-09-17T06:43:41.636Z,733.86
2016-09-17T06:44:41.619Z,733.81
2016-09-17T06:45:41.607Z,733.78
2016-09-17T06:46:41.593Z,733.8
2016-09-17T06:47:41.593Z,733.8
2016-09-17T06:48:41.571Z,733.81
2016-09-17T06:49:41.552Z,733.82
2016-09-17T06:50:41.544Z,733.83
2016-09-17T06:51:41.531Z,733.81
2016-09-17T06:52:41.509Z,733.83
2016-09-17T06:53:41.503Z,733.83
2016-09-17T06:54:41.489Z,733.88
2016-09-17T06:55:41.480Z,733.85
2016-09-17T06:56:41.453Z,733.82
2016-09-17T06:57:41.442Z,733.84
2016-09-17T06:58:41.434Z,733.86
2016-09-17T06:59:41.412Z,733.85
2016-09-17T07:00:41.399Z,733.88
2016-09-17T07:01:41.386Z,733.88
2016-09-17T07:02:41.377Z,733.89
2016-09-17T07:03:41.363Z,733.91
2016-09-17T07:04:41.342Z,733.88
2016-09-17T07:05:41.335Z,733.9
2016-09-17T07:06:41.320Z,733.9
2016-09-17T07:07:41.307Z,733.86
2016-09-17T07:08:41.293Z,733.85
2016-09-17T07:09:41.279Z,733.88
2016-09-17T07:10:41.264Z,733.91
2016-09-17T07:11:41.251Z,733.89
2016-09-17T07:12:41.229Z,733.85
2016-09-17T07:13:41.215Z,733.85
2016-09-17T07:14:41.203Z,733.89
2016-09-17T07:15:41.187Z,733.88
2016-09-17T07:16:41.181Z,733.87
2016-09-17T07:17:41.166Z,733.89
2016-09-17T07:18:41.153Z,733.9
2016-09-17T07:19:41.132Z,733.95
2016-09-17T07:20:41.126Z,733.91
2016-09-17T07:21:41.111Z,733.97
2016-09-17T07:22:41.091Z,733.98
2016-09-17T07:23:41.078Z,733.94
2016-09-17T07:24:41.070Z,733.97
2016-09-17T07:25:41.056Z,733.94
2016-09-17T07:26:41.037Z,733.96
2016-09-17T07:27:41.029Z,733.97
2016-09-17T07:28:41.008Z,734
2016-09-17T07:29:40.995Z,734
2016-09-17T07:30:40.982Z,733.97
2016-09-17T07:31:40.975Z,733.94
2016-09-17T07:32:40.955Z,733.95
2016-09-17T07:33:40.948Z,733.92
2016-09-17T07:34:40.935Z,733.96
2016-09-17T07:35:40.914Z,733.97
2016-09-17T07:36:40.908Z,733.96
2016-09-17T07:37:40.887Z,733.93
2016-09-17T07:38:40.882Z,733.99
2016-09-17T07:39:40.867Z,733.99
2016-09-17T07:40:40.849Z,734.03
2016-09-17T07:41:40.834Z,734
2016-09-17T07:42:40.822Z,734
2016-09-17T07:43:40.807Z,734.03
2016-09-17T07:44:40.795Z,733.97
2016-09-17T07:45:40.780Z,734.01
2016-09-17T07:46:40.774Z,734.04
2016-09-17T07:47:40.761Z,734.05
2016-09-17T07:48:40.741Z,734.01
2016-09-17T07:49:40.735Z,734.1
2016-09-17T07:50:40.714Z,734.1
2016-09-17T07:51:40.706Z,734.06
2016-09-17T07:52:40.689Z,734.04
2016-09-17T07:53:40.681Z,734.05
2016-09-17T07:54:40.660Z,734.03
2016-09-17T07:55:40.655Z,734.05
2016-09-17T07:56:40.634Z,734.07
2016-09-17T07:57:40.622Z,734.08
2016-09-17T07:58:40.614Z,734.1
2016-09-17T07:59:40.605Z,734.12
2016-09-17T08:00:40.582Z,734.14
2016-09-17T08:01:40.567Z,734.15
2016-09-17T08:02:40.553Z,734.15
2016-09-17T08:03:40.547Z,734.19
2016-09-17T08:04:40.527Z,734.18
2016-09-17T08:05:40.518Z,734.19
2016-09-17T08:06:40.505Z,734.18
2016-09-17T08:07:40.493Z,734.18
2016-09-17T08:08:40.472Z,734.18
2016-09-17T08:09:40.458Z,734.17
2016-09-17T08:10:40.444Z,734.21
2016-09-17T08:11:40.430Z,734.2
2016-09-17T08:12:40.424Z,734.18
2016-09-17T08:13:40.403Z,734.24
2016-09-17T08:14:40.398Z,734.24
2016-09-17T08:15:40.377Z,734.25
2016-09-17T08:16:40.365Z,734.2
2016-09-17T08:17:40.358Z,734.22
2016-09-17T08:18:40.338Z,734.22
2016-09-17T08:19:40.331Z,734.25
2016-09-17T08:20:40.312Z,734.22
2016-09-17T08:21:40.305Z,734.21
2016-09-17T08:22:40.284Z,734.23
2016-09-17T08:23:40.270Z,734.19
2016-09-17T08:24:40.257Z,734.19
2016-09-17T08:25:40.251Z,734.2
2016-09-17T08:26:40.238Z,734.21
2016-09-17T08:27:40.223Z,734.22
2016-09-17T08:28:40.211Z,734.26
2016-09-17T08:29:40.198Z,734.28
2016-09-17T08:30:40.178Z,734.28
2016-09-17T08:31:40.171Z,734.27
2016-09-17T08:32:40.152Z,734.3
2016-09-17T08:33:40.145Z,734.27
2016-09-17T08:34:40.125Z,734.27
2016-09-17T08:35:40.119Z,734.26
2016-09-17T08:36:40.111Z,734.25
2016-09-17T08:37:40.085Z,734.27
2016-09-17T08:38:40.080Z,734.28
2016-09-17T08:39:40.067Z,734.24
2016-09-17T08:40:40.054Z,734.28
2016-09-17T08:41:40.033Z,734.26
2016-09-17T08:42:40.020Z,734.3
2016-09-17T08:43:40.008Z,734.27
2016-09-17T08:44:40.003Z,734.26
2016-09-17T08:45:39.981Z,734.28
2016-09-17T08:46:39.976Z,734.3
2016-09-17T08:47:39.963Z,734.32
2016-09-17T08:48:39.962Z,734.29
2016-09-17T08:49:39.942Z,734.27
2016-09-17T08:50:39.925Z,734.32
2016-09-17T08:51:39.906Z,734.26
2016-09-17T08:52:39.892Z,734.29
2016-09-17T08:53:39.879Z,734.29
2016-09-17T08:54:39.869Z,734.29
2016-09-17T08:55:39.862Z,734.33
2016-09-17T08:56:39.849Z,734.34
2016-09-17T08:57:39.829Z,734.32
2016-09-17T08:58:39.824Z,734.3
2016-09-17T08:59:39.809Z,734.33
2016-09-17T09:00:39.797Z,734.36
2016-09-17T09:01:39.778Z,734.32
2016-09-17T09:02:39.772Z,734.33
2016-09-17T09:03:39.758Z,734.29
2016-09-17T09:04:39.738Z,734.31
2016-09-17T09:05:39.731Z,734.3
2016-09-17T09:06:39.714Z,734.28
2016-09-17T09:07:39.698Z,734.29
2016-09-17T09:08:39.693Z,734.33
2016-09-17T09:09:39.672Z,734.3
2016-09-17T09:10:39.661Z,734.31
2016-09-17T09:11:39.653Z,734.31
2016-09-17T09:12:39.635Z,734.29
2016-09-17T09:13:39.622Z,734.3
2016-09-17T09:14:39.615Z,734.25
2016-09-17T09:15:39.602Z,734.31
2016-09-17T09:16:39.591Z,734.27
2016-09-17T09:17:39.572Z,734.26
2016-09-17T09:18:39.564Z,734.27
2016-09-17T09:19:39.544Z,734.28
2016-09-17T09:20:39.531Z,734.26
2016-09-17T09:21:39.525Z,734.26
2016-09-17T09:22:39.505Z,734.28
2016-09-17T09:23:39.494Z,734.35
2016-09-17T09:24:39.480Z,734.33
2016-09-17T09:25:39.473Z,734.31
2016-09-17T09:26:39.461Z,734.37
2016-09-17T09:27:39.441Z,734.39
2016-09-17T09:28:39.437Z,734.33
2016-09-17T09:29:39.433Z,734.37
2016-09-17T09:30:39.405Z,734.36
2016-09-17T09:31:39.399Z,734.36
2016-09-17T09:32:39.386Z,734.3
2016-09-17T09:33:39.366Z,734.34
2016-09-17T09:34:39.368Z,734.39
2016-09-17T09:35:39.341Z,734.35
2016-09-17T09:36:39.328Z,734.39
2016-09-17T09:37:39.324Z,734.4
2016-09-17T09:38:39.311Z,734.4
2016-09-17T09:39:39.299Z,734.38
2016-09-17T09:40:39.286Z,734.39
2016-09-17T09:41:39.273Z,734.32
2016-09-17T09:42:39.261Z,734.35
2016-09-17T09:43:39.248Z,734.31
2016-09-17T09:44:39.229Z,734.3
2016-09-17T09:45:39.227Z,734.29
2016-09-17T09:46:39.211Z,734.32
2016-09-17T09:47:39.191Z,734.3
2016-09-17T09:48:39.185Z,734.31
2016-09-17T09:49:39.164Z,734.31
2016-09-17T09:50:39.160Z,734.42
2016-09-17T09:51:39.147Z,734.37
2016-09-17T09:52:39.135Z,734.31
2016-09-17T09:53:39.172Z,734.32
2016-09-17T09:54:39.110Z,734.33
2016-09-17T09:55:39.098Z,734.32
2016-09-17T09:56:39.085Z,734.34
2016-09-17T09:57:39.071Z,734.37
2016-09-17T09:58:39.050Z,734.29
2016-09-17T09:59:39.046Z,734.29
2016-09-17T10:00:39.033Z,734.31
2016-09-17T10:01:39.014Z,734.29
2016-09-17T10:02:39.007Z,734.25
2016-09-17T10:03:38.989Z,734.31
2016-09-17T10:04:38.982Z,734.24
2016-09-17T10:05:38.962Z,734.24
2016-09-17T10:06:38.950Z,734.26
2016-09-17T10:07:38.943Z,734.25
2016-09-17T10:08:38.931Z,734.24
2016-09-17T10:09:38.917Z,734.27
2016-09-17T10:10:38.897Z,734.25
2016-09-17T10:11:38.892Z,734.25
2016-09-17T10:12:38.870Z,734.26
2016-09-17T10:13:38.864Z,734.26
2016-09-17T10:14:38.845Z,734.29
2016-09-17T10:15:38.832Z,734.3
2016-09-17T10:16:38.817Z,734.24
2016-09-17T10:17:38.806Z,734.3
2016-09-17T10:18:38.799Z,734.33
2016-09-17T10:19:38.780Z,734.36
2016-09-17T10:20:38.773Z,734.4
2016-09-17T10:21:38.761Z,734.4
2016-09-17T10:22:38.741Z,734.33
2016-09-17T10:23:38.734Z,734.36
2016-09-17T10:24:38.721Z,734.39
2016-09-17T10:25:38.708Z,734.36
2016-09-17T10:26:38.696Z,734.38
2016-09-17T10:27:38.675Z,734.37
2016-09-17T10:28:38.670Z,734.33
2016-09-17T10:29:38.657Z,734.41
2016-09-17T10:30:38.645Z,734.4
2016-09-17T10:31:38.623Z,734.38
2016-09-17T10:32:38.619Z,734.39
2016-09-17T10:33:38.606Z,734.38
2016-09-17T10:34:38.592Z,734.4
2016-09-17T10:35:38.573Z,734.4
2016-09-17T10:36:38.561Z,734.42
2016-09-17T10:37:38.551Z,734.41
2016-09-17T10:38:38.535Z,734.43
2016-09-17T10:39:38.532Z,734.47
2016-09-17T10:40:38.513Z,734.45
2016-09-17T10:41:38.500Z,734.44
2016-09-17T10:42:38.488Z,734.42
2016-09-17T10:43:38.483Z,734.37
2016-09-17T10:44:38.463Z,734.35
2016-09-17T10:45:38.458Z,734.39
2016-09-17T10:46:38.438Z,734.34
2016-09-17T10:47:38.434Z,734.45
2016-09-17T10:48:38.422Z,734.43
2016-09-17T10:49:38.409Z,734.47
2016-09-17T10:50:38.389Z,734.46
2016-09-17T10:51:38.376Z,734.42
2016-09-17T10:52:38.365Z,734.48
2016-09-17T10:53:38.357Z,734.47
2016-09-17T10:54:38.340Z,734.47
2016-09-17T10:55:38.334Z,734.5
2016-09-17T10:56:38.321Z,734.43
2016-09-17T10:57:38.301Z,734.5
2016-09-17T10:58:38.290Z,734.48
2016-09-17T10:59:38.284Z,734.48
2016-09-17T11:00:38.263Z,734.48
2016-09-17T11:01:38.252Z,734.51
2016-09-17T11:02:38.255Z,734.54
2016-09-17T11:03:38.233Z,734.57
2016-09-17T11:04:38.213Z,734.54
2016-09-17T11:05:38.201Z,734.53
2016-09-17T11:06:38.188Z,734.55
2016-09-17T11:07:38.181Z,734.49
2016-09-17T11:08:38.168Z,734.46
2016-09-17T11:09:38.149Z,734.5
2016-09-17T11:10:38.143Z,734.43
2016-09-17T11:11:38.130Z,734.45
2016-09-17T11:12:38.116Z,734.46
2016-09-17T11:13:38.104Z,734.5
2016-09-17T11:14:38.085Z,734.47
2016-09-17T11:15:38.070Z,734.52
2016-09-17T11:16:38.065Z,734.54
2016-09-17T11:17:38.052Z,734.53
2016-09-17T11:18:38.039Z,734.48
2016-09-17T11:19:38.019Z,734.51
2016-09-17T11:20:38.015Z,734.52
2016-09-17T11:21:38.001Z,734.54
2016-09-17T11:22:37.989Z,734.55
2016-09-17T11:23:37.974Z,734.56
2016-09-17T11:24:37.962Z,734.6
2016-09-17T11:25:37.949Z,734.55
2016-09-17T11:26:37.937Z,734.61
2016-09-17T11:27:37.924Z,734.6
2016-09-17T11:28:37.905Z,734.6
2016-09-17T11:29:37.898Z,734.57
2016-09-17T11:30:37.879Z,734.6
2016-09-17T11:31:37.874Z,734.56
2016-09-17T11:32:37.854Z,734.54
2016-09-17T11:33:37.841Z,734.58
2016-09-17T11:34:37.829Z,734.55
2016-09-17T11:35:37.817Z,734.59
2016-09-17T11:36:37.810Z,734.56
2016-09-17T11:37:37.799Z,734.6
2016-09-17T11:38:37.787Z,734.63
2016-09-17T11:39:37.768Z,734.62
2016-09-17T11:40:37.763Z,734.62
2016-09-17T11:41:37.751Z,734.66
2016-09-17T11:42:37.732Z,734.59
2016-09-17T11:43:37.722Z,734.6
2016-09-17T11:44:37.714Z,734.63
2016-09-17T11:45:37.696Z,734.61
2016-09-17T11:46:37.687Z,734.59
2016-09-17T11:47:37.672Z,734.65
2016-09-17T11:48:37.665Z,734.61
2016-09-17T11:49:37.647Z,734.58
2016-09-17T11:50:37.642Z,734.6
2016-09-17T11:51:37.628Z,734.58
2016-09-17T11:52:37.616Z,734.61
2016-09-17T11:53:37.596Z,734.68
2016-09-17T11:54:37.590Z,734.7
2016-09-17T11:55:37.577Z,734.69
2016-09-17T11:56:37.558Z,734.63
2016-09-17T11:57:37.544Z,734.7
2016-09-17T11:58:37.532Z,734.67
2016-09-17T11:59:37.525Z,734.62
2016-09-17T12:00:37.513Z,734.53
2016-09-17T12:01:37.499Z,734.52
2016-09-17T12:02:37.486Z,734.58
2016-09-17T12:03:37.473Z,734.56
2016-09-17T12:04:37.453Z,734.52
2016-09-17T12:05:37.440Z,734.61
2016-09-17T12:06:37.427Z,734.6
2016-09-17T12:07:37.419Z,734.6
2016-09-17T12:08:37.400Z,734.61
2016-09-17T12:09:37.393Z,734.62
2016-09-17T12:10:37.379Z,734.59
2016-09-17T12:11:37.366Z,734.59
2016-09-17T12:12:37.353Z,734.58
2016-09-17T12:13:37.332Z,734.52
2016-09-17T12:14:37.331Z,734.56
2016-09-17T12:15:37.306Z,734.57
2016-09-17T12:16:37.300Z,734.6
2016-09-17T12:17:37.278Z,734.5
2016-09-17T12:18:37.267Z,734.5
2016-09-17T12:19:37.254Z,734.55
2016-09-17T12:20:37.239Z,734.52
2016-09-17T12:21:37.233Z,734.52
2016-09-17T12:22:37.212Z,734.53
2016-09-17T12:23:37.201Z,734.49
2016-09-17T12:24:37.185Z,734.47
2016-09-17T12:25:37.174Z,734.54
2016-09-17T12:26:37.167Z,734.6
2016-09-17T12:27:37.153Z,734.58
2016-09-17T12:28:37.140Z,734.58
2016-09-17T12:29:37.120Z,734.57
2016-09-17T12:30:37.113Z,734.57
2016-09-17T12:31:37.100Z,734.52
2016-09-17T12:32:37.088Z,734.55